Time;durP1;ratioP1;P1;durP2;ratioP2;P2;SDS_P1;SDS_P2;PMS_P1;PMS_P2;Temp;Humidity;BMP_temperature;BMP_pressure;BME280_temperature;BME280_humidity;BME280_pressure;Samples;Min_cycle;Max_cycle;Signal;HPM_P1;HPM_P2
2021/03/05 00:00:26;;;;;;;5.22;4.13;;;8.70;78.30;;;;;;4956590;28;20047;-75
2021/03/05 00:02:53;;;;;;;6.25;3.85;;;8.60;78.00;;;;;;4974521;28;20035;-73
2021/03/05 00:05:19;;;;;;;5.78;4.18;;;8.60;77.60;;;;;;4969744;28;20464;-73
2021/03/05 00:07:45;;;;;;;7.65;5.25;;;8.60;76.90;;;;;;4966753;28;20117;-73
2021/03/05 00:10:15;;;;;;;7.13;4.82;;;8.60;77.20;;;;;;4958872;28;20449;-73
2021/03/05 00:12:41;;;;;;;9.32;5.30;;;8.60;78.00;;;;;;4943843;28;20034;-73
2021/03/05 00:15:09;;;;;;;8.25;4.63;;;8.50;77.00;;;;;;4966671;28;20649;-74
2021/03/05 00:17:35;;;;;;;6.97;4.53;;;8.50;76.10;;;;;;4956556;28;20045;-73
2021/03/05 00:20:02;;;;;;;7.40;4.85;;;8.40;75.60;;;;;;4954686;28;20511;-72
2021/03/05 00:22:27;;;;;;;7.75;4.53;;;8.30;75.60;;;;;;4972034;28;20046;-75
2021/03/05 00:24:53;;;;;;;8.48;5.18;;;8.30;75.40;;;;;;4972997;28;20041;-73
2021/03/05 00:27:19;;;;;;;6.47;4.35;;;8.30;75.30;;;;;;4973549;28;20053;-73
2021/03/05 00:29:44;;;;;;;7.90;5.03;;;8.20;74.90;;;;;;4972618;28;20031;-73
2021/03/05 00:32:10;;;;;;;7.05;4.68;;;8.20;73.90;;;;;;4961988;28;20142;-74
2021/03/05 00:34:36;;;;;;;8.98;5.10;;;8.10;74.00;;;;;;4958750;28;20552;-75
2021/03/05 00:37:03;;;;;;;9.32;5.43;;;8.00;73.70;;;;;;4942728;28;20036;-73
2021/03/05 00:39:28;;;;;;;11.02;5.90;;;8.00;73.50;;;;;;4964053;28;20385;-74
2021/03/05 00:41:54;;;;;;;9.25;5.28;;;7.90;73.70;;;;;;4974407;28;20046;-73
2021/03/05 00:44:21;;;;;;;10.65;5.85;;;7.80;74.10;;;;;;4956992;28;20043;-73
2021/03/05 00:46:47;;;;;;;9.85;5.55;;;7.80;74.00;;;;;;4955265;28;20050;-73
2021/03/05 00:49:13;;;;;;;10.27;5.82;;;7.80;73.80;;;;;;4954265;29;20122;-72
2021/03/05 00:51:39;;;;;;;11.20;6.43;;;7.70;73.80;;;;;;4953845;29;20178;-73
2021/03/05 00:54:05;;;;;;;9.90;5.90;;;7.60;74.40;;;;;;4953963;29;20039;-73
2021/03/05 00:56:31;;;;;;;10.43;6.00;;;7.70;74.10;;;;;;4953872;28;20044;-75
2021/03/05 00:58:57;;;;;;;12.13;6.65;;;7.60;74.10;;;;;;4959250;28;20053;-73
2021/03/05 01:01:22;;;;;;;10.40;5.97;;;7.60;74.50;;;;;;4970034;28;20484;-75
2021/03/05 01:03:48;;;;;;;10.83;5.90;;;7.60;75.00;;;;;;4950674;29;20093;-73
2021/03/05 01:06:13;;;;;;;11.90;6.37;;;7.60;74.90;;;;;;4955050;28;20053;-73
2021/03/05 01:08:39;;;;;;;14.93;7.18;;;7.60;74.60;;;;;;4952742;29;20159;-73
2021/03/05 01:11:05;;;;;;;11.80;6.53;;;7.50;73.80;;;;;;4952924;28;20054;-73
2021/03/05 01:13:30;;;;;;;14.17;6.83;;;7.50;74.00;;;;;;4964025;28;20554;-75
2021/03/05 01:15:56;;;;;;;11.87;6.47;;;7.40;74.00;;;;;;4959012;28;20035;-73
2021/03/05 01:18:22;;;;;;;12.90;6.77;;;7.40;74.10;;;;;;4954244;28;20393;-73
2021/03/05 01:20:47;;;;;;;13.87;7.03;;;7.40;73.40;;;;;;4973385;28;20030;-73
2021/03/05 01:23:15;;;;;;;17.37;7.17;;;7.40;72.70;;;;;;4964691;28;20064;-73
2021/03/05 01:25:41;;;;;;;13.93;6.80;;;7.40;72.80;;;;;;4960316;28;20531;-73
2021/03/05 01:28:07;;;;;;;14.23;6.90;;;7.30;71.90;;;;;;4968209;28;20042;-73
2021/03/05 01:30:33;;;;;;;13.10;6.03;;;7.30;71.40;;;;;;4973030;28;20023;-73
2021/03/05 01:33:00;;;;;;;11.13;5.90;;;7.30;71.00;;;;;;4963966;28;20062;-73
2021/03/05 01:35:27;;;;;;;14.87;6.73;;;7.20;70.80;;;;;;4957368;28;20074;-73
2021/03/05 01:37:54;;;;;;;15.20;6.63;;;7.30;71.00;;;;;;4966223;28;20034;-72
2021/03/05 01:40:29;;;;;;;13.83;6.23;;;7.20;71.00;;;;;;4973687;28;20051;-73
2021/03/05 01:42:54;;;;;;;12.73;6.60;;;7.10;70.80;;;;;;4967165;28;20043;-73
2021/03/05 01:45:30;;;;;;;12.93;6.33;;;7.10;70.80;;;;;;4953273;28;20388;-73
2021/03/05 01:47:58;;;;;;;12.60;6.43;;;7.10;71.00;;;;;;4965709;28;20468;-73
2021/03/05 01:50:33;;;;;;;13.13;6.80;;;7.10;71.00;;;;;;4955485;28;20031;-73
2021/03/05 01:53:05;;;;;;;12.67;6.30;;;7.10;71.00;;;;;;4955634;28;20042;-73
2021/03/05 01:55:31;;;;;;;11.80;6.30;;;7.10;71.30;;;;;;4952593;29;20062;-75
2021/03/05 01:57:57;;;;;;;12.60;6.77;;;7.10;71.00;;;;;;4954195;29;20496;-73
2021/03/05 02:00:46;;;;;;;16.37;6.83;;;7.00;71.20;;;;;;4953807;29;20039;-73
2021/03/05 02:03:12;;;;;;;11.80;6.47;;;7.00;70.90;;;;;;4960717;28;20472;-73
2021/03/05 02:05:38;;;;;;;12.00;6.10;;;7.10;70.90;;;;;;4971488;28;20045;-73
2021/03/05 02:08:08;;;;;;;11.73;6.40;;;7.00;70.50;;;;;;4973235;28;20507;-73
2021/03/05 02:10:34;;;;;;;15.97;7.23;;;7.00;71.00;;;;;;4954615;28;20620;-74
2021/03/05 02:13:00;;;;;;;14.43;6.67;;;7.00;71.00;;;;;;4973515;28;20042;-73
2021/03/05 02:15:26;;;;;;;13.47;6.73;;;7.00;71.10;;;;;;4962513;28;20047;-73
2021/03/05 02:18:23;;;;;;;15.37;7.07;;;7.00;71.60;;;;;;4965129;28;20035;-74
2021/03/05 02:21:19;;;;;;;12.07;6.50;;;6.90;70.60;;;;;;4942041;28;20368;-73
2021/03/05 02:24:06;;;;;;;14.87;7.33;;;6.90;70.90;;;;;;4957004;28;20058;-73
2021/03/05 02:26:59;;;;;;;13.37;6.37;;;6.90;71.30;;;;;;4955404;28;20125;-76
2021/03/05 02:29:43;;;;;;;14.30;6.97;;;6.90;70.50;;;;;;4973028;28;20039;-73
2021/03/05 02:32:18;;;;;;;12.90;6.93;;;6.90;70.90;;;;;;4956745;28;20484;-73
2021/03/05 02:34:47;;;;;;;12.27;6.73;;;6.90;71.40;;;;;;4956836;28;20049;-73
2021/03/05 02:37:15;;;;;;;14.43;6.87;;;6.90;71.00;;;;;;4973284;28;20035;-73
2021/03/05 02:40:00;;;;;;;12.77;6.20;;;6.90;71.10;;;;;;4959363;28;20039;-73
2021/03/05 02:42:37;;;;;;;12.33;6.80;;;6.90;71.20;;;;;;4971228;28;20054;-73
2021/03/05 02:45:09;;;;;;;12.97;6.13;;;6.90;71.40;;;;;;4965466;28;20035;-73
2021/03/05 02:47:37;;;;;;;14.85;6.82;;;6.80;70.90;;;;;;4953233;29;20039;-72
2021/03/05 02:50:05;;;;;;;13.47;7.03;;;6.80;71.00;;;;;;4966949;28;20042;-74
2021/03/05 02:52:33;;;;;;;14.13;7.20;;;6.80;71.30;;;;;;4955264;28;20043;-76
2021/03/05 02:55:02;;;;;;;14.83;7.30;;;6.80;71.80;;;;;;4965642;28;20560;-74
2021/03/05 02:57:31;;;;;;;15.37;7.67;;;6.80;71.60;;;;;;4962002;28;20039;-74
2021/03/05 02:59:57;;;;;;;13.17;7.13;;;6.70;71.10;;;;;;4957388;28;20047;-74
2021/03/05 03:02:26;;;;;;;13.53;6.80;;;6.80;71.60;;;;;;4961247;28;20032;-72
2021/03/05 03:04:53;;;;;;;14.27;6.67;;;6.70;71.60;;;;;;4951797;29;20459;-72
2021/03/05 03:07:20;;;;;;;15.17;6.90;;;6.70;71.70;;;;;;4952668;28;20035;-75
2021/03/05 03:09:47;;;;;;;13.77;6.80;;;6.70;71.60;;;;;;4964161;28;20038;-74
2021/03/05 03:12:15;;;;;;;14.67;6.77;;;6.70;72.00;;;;;;4956152;28;20477;-74
2021/03/05 03:14:43;;;;;;;13.07;7.03;;;6.70;72.00;;;;;;4941247;28;20059;-74
2021/03/05 03:17:10;;;;;;;15.20;6.90;;;6.70;72.40;;;;;;4971808;28;20121;-74
2021/03/05 03:19:38;;;;;;;13.33;6.60;;;6.70;72.10;;;;;;4960084;28;20479;-74
2021/03/05 03:22:05;;;;;;;14.73;6.83;;;6.70;72.10;;;;;;4969405;28;20507;-73
2021/03/05 03:24:31;;;;;;;13.37;7.07;;;6.70;72.10;;;;;;4958732;28;20484;-75
2021/03/05 03:26:58;;;;;;;15.90;7.20;;;6.70;72.10;;;;;;4968943;28;20488;-73
2021/03/05 03:29:24;;;;;;;13.93;7.07;;;6.70;72.30;;;;;;4966044;28;20031;-74
2021/03/05 03:31:50;;;;;;;13.27;6.67;;;6.70;72.00;;;;;;4961747;28;20515;-74
2021/03/05 03:34:16;;;;;;;14.43;7.33;;;6.70;71.80;;;;;;4972749;28;20034;-74
2021/03/05 03:36:43;;;;;;;13.73;7.13;;;6.70;71.90;;;;;;4970820;28;20035;-73
2021/03/05 03:39:10;;;;;;;15.23;6.97;;;6.70;71.90;;;;;;4955620;28;20039;-74
2021/03/05 03:41:37;;;;;;;14.90;7.07;;;6.70;71.90;;;;;;4954923;29;20040;-74
2021/03/05 03:44:08;;;;;;;15.37;7.37;;;6.70;71.90;;;;;;4971014;28;20495;-74
2021/03/05 03:46:37;;;;;;;14.33;6.97;;;6.70;72.30;;;;;;4955935;28;20043;-77
2021/03/05 03:49:07;;;;;;;14.17;7.03;;;6.70;72.20;;;;;;4955746;28;20035;-73
2021/03/05 03:51:39;;;;;;;13.50;6.23;;;6.70;72.00;;;;;;4956462;29;20038;-74
2021/03/05 03:54:06;;;;;;;15.03;6.70;;;6.70;72.00;;;;;;4955661;28;20103;-74
2021/03/05 03:56:35;;;;;;;14.83;6.93;;;6.70;71.90;;;;;;4955141;28;20036;-76
2021/03/05 03:59:02;;;;;;;15.67;6.83;;;6.60;72.20;;;;;;4956824;28;20039;-74
2021/03/05 04:01:31;;;;;;;15.43;8.10;;;6.70;72.30;;;;;;4955251;28;20048;-74
2021/03/05 04:03:58;;;;;;;14.97;7.87;;;6.70;72.30;;;;;;4954863;29;20074;-73
2021/03/05 04:06:25;;;;;;;15.07;7.50;;;6.70;72.50;;;;;;4955322;29;20036;-74
2021/03/05 04:08:52;;;;;;;15.10;7.33;;;6.70;72.40;;;;;;4955815;28;20108;-74
2021/03/05 04:11:20;;;;;;;15.33;7.87;;;6.70;72.20;;;;;;4954992;29;20039;-74
2021/03/05 04:13:46;;;;;;;14.40;7.00;;;6.70;72.40;;;;;;4954559;28;20484;-74
2021/03/05 04:16:12;;;;;;;16.50;7.50;;;6.70;72.50;;;;;;4955120;29;20071;-74
2021/03/05 04:18:39;;;;;;;15.57;7.50;;;6.70;73.00;;;;;;4954464;28;20451;-74
2021/03/05 04:21:09;;;;;;;13.83;7.07;;;6.80;73.30;;;;;;4955123;28;20035;-73
2021/03/05 04:23:36;;;;;;;14.13;7.27;;;6.80;72.10;;;;;;4954170;28;20039;-75
2021/03/05 04:26:02;;;;;;;14.60;7.80;;;6.80;71.90;;;;;;4955990;29;20560;-73
2021/03/05 04:28:29;;;;;;;13.73;7.30;;;6.80;71.90;;;;;;4973279;28;20114;-74
2021/03/05 04:30:54;;;;;;;16.93;7.97;;;6.70;71.90;;;;;;4967996;28;20150;-74
2021/03/05 04:33:20;;;;;;;13.07;7.00;;;6.70;72.30;;;;;;4961792;28;20459;-74
2021/03/05 04:35:46;;;;;;;16.00;7.63;;;6.70;72.90;;;;;;4974063;28;20451;-74
2021/03/05 04:38:11;;;;;;;14.20;7.07;;;6.70;72.60;;;;;;4957914;28;20469;-74
2021/03/05 04:40:37;;;;;;;15.60;7.57;;;6.70;72.70;;;;;;4972177;28;20034;-74
2021/03/05 04:43:03;;;;;;;16.73;7.90;;;6.70;73.00;;;;;;4967055;28;20057;-74
2021/03/05 04:45:29;;;;;;;15.27;7.67;;;6.80;72.90;;;;;;4965266;28;20031;-74
2021/03/05 04:47:54;;;;;;;14.57;7.67;;;6.80;72.30;;;;;;4973309;28;20042;-73
2021/03/05 04:50:20;;;;;;;14.37;6.97;;;6.80;72.40;;;;;;4974896;28;20031;-73
2021/03/05 04:52:46;;;;;;;15.83;8.00;;;6.70;72.50;;;;;;4974111;28;20044;-74
2021/03/05 04:55:12;;;;;;;13.73;7.10;;;6.70;72.50;;;;;;4973604;28;20042;-74
2021/03/05 04:57:37;;;;;;;15.50;7.63;;;6.70;72.80;;;;;;4973866;28;20050;-74
2021/03/05 05:00:05;;;;;;;16.07;7.90;;;6.70;72.70;;;;;;4958592;28;20055;-74
2021/03/05 05:02:30;;;;;;;13.87;7.63;;;6.70;73.10;;;;;;4956262;28;20035;-74
2021/03/05 05:04:56;;;;;;;14.40;7.80;;;6.70;73.00;;;;;;4967453;28;20379;-74
2021/03/05 05:07:22;;;;;;;15.57;8.13;;;6.60;73.60;;;;;;4963040;28;20453;-74
2021/03/05 05:09:47;;;;;;;15.73;7.90;;;6.60;73.70;;;;;;4959672;28;20086;-74
2021/03/05 05:12:13;;;;;;;13.97;7.20;;;6.70;73.20;;;;;;4969622;28;20050;-74
2021/03/05 05:14:39;;;;;;;16.00;7.77;;;6.70;73.00;;;;;;4973774;28;20097;-74
2021/03/05 05:17:05;;;;;;;17.17;8.20;;;6.70;73.00;;;;;;4966502;28;20095;-74
2021/03/05 05:19:30;;;;;;;16.53;8.43;;;6.70;73.80;;;;;;4953721;28;20035;-74
2021/03/05 05:21:56;;;;;;;15.47;8.00;;;6.70;73.80;;;;;;4953286;29;20047;-74
2021/03/05 05:24:22;;;;;;;14.93;7.53;;;6.80;74.00;;;;;;4970688;28;20034;-74
2021/03/05 05:26:48;;;;;;;17.73;8.67;;;6.80;74.20;;;;;;4972448;28;20039;-74
2021/03/05 05:29:13;;;;;;;17.27;8.30;;;6.80;74.00;;;;;;4973041;28;20428;-74
2021/03/05 05:31:39;;;;;;;17.40;8.43;;;6.70;73.80;;;;;;4968508;28;20435;-74
2021/03/05 05:34:04;;;;;;;16.90;8.33;;;6.70;73.80;;;;;;4953396;29;20035;-74
2021/03/05 05:36:30;;;;;;;15.87;8.00;;;6.70;73.60;;;;;;4971632;28;20039;-74
2021/03/05 05:38:56;;;;;;;15.33;7.93;;;6.80;73.50;;;;;;4966657;28;20183;-74
2021/03/05 05:41:24;;;;;;;16.37;8.33;;;6.70;73.50;;;;;;4954804;29;20036;-74
2021/03/05 05:43:50;;;;;;;15.20;7.90;;;6.80;73.70;;;;;;4952996;28;20039;-74
2021/03/05 05:46:20;;;;;;;18.50;8.60;;;6.70;74.40;;;;;;4953741;28;20075;-74
2021/03/05 05:48:47;;;;;;;16.60;7.90;;;6.60;73.80;;;;;;4973422;28;20043;-74
2021/03/05 05:51:27;;;;;;;17.40;8.57;;;6.60;74.10;;;;;;4965101;28;20043;-74
2021/03/05 05:53:56;;;;;;;22.13;9.23;;;6.60;74.50;;;;;;4952957;28;20274;-74
2021/03/05 05:56:22;;;;;;;17.07;8.53;;;6.70;74.00;;;;;;4970284;28;20061;-74
2021/03/05 05:58:48;;;;;;;18.60;9.13;;;6.70;74.10;;;;;;4972168;28;20046;-75
2021/03/05 06:01:14;;;;;;;19.60;9.30;;;6.70;73.70;;;;;;4973498;28;20059;-74
2021/03/05 06:03:40;;;;;;;19.33;9.40;;;6.80;73.60;;;;;;4952392;29;20047;-74
2021/03/05 06:06:07;;;;;;;17.60;8.93;;;6.80;73.40;;;;;;4953316;28;20488;-74
2021/03/05 06:08:32;;;;;;;19.90;9.83;;;6.70;73.70;;;;;;4971361;28;20039;-77
2021/03/05 06:10:58;;;;;;;18.60;8.80;;;6.70;74.00;;;;;;4966050;28;20054;-74
2021/03/05 06:13:26;;;;;;;18.67;9.17;;;6.70;74.10;;;;;;4952672;28;20043;-74
2021/03/05 06:16:11;;;;;;;19.03;8.63;;;6.80;74.00;;;;;;4953086;29;20039;-75
2021/03/05 06:18:37;;;;;;;19.93;9.40;;;6.70;74.40;;;;;;4972174;28;20050;-75
2021/03/05 06:21:02;;;;;;;20.00;9.00;;;6.70;75.40;;;;;;4965611;28;20397;-74
2021/03/05 06:23:28;;;;;;;19.77;9.07;;;6.70;75.20;;;;;;4963389;28;20118;-74
2021/03/05 06:26:02;;;;;;;18.80;8.93;;;6.60;75.30;;;;;;4958022;28;20035;-74
2021/03/05 06:28:27;;;;;;;24.67;9.93;;;6.70;76.00;;;;;;4970208;28;20074;-74
2021/03/05 06:30:54;;;;;;;18.63;8.83;;;6.70;76.10;;;;;;4966046;28;20274;-74
2021/03/05 06:33:31;;;;;;;23.30;10.30;;;6.70;76.70;;;;;;4960782;28;20039;-75
2021/03/05 06:36:18;;;;;;;20.50;9.30;;;6.60;76.80;;;;;;4972378;28;20034;-74
2021/03/05 06:38:46;;;;;;;19.70;9.10;;;6.60;76.90;;;;;;4940492;28;20031;-74
2021/03/05 06:41:25;;;;;;;22.67;10.47;;;6.50;76.80;;;;;;4972851;28;20523;-74
2021/03/05 06:43:59;;;;;;;20.83;9.10;;;6.50;77.00;;;;;;4958522;28;20035;-74
2021/03/05 06:46:39;;;;;;;19.93;9.43;;;6.50;77.40;;;;;;4953718;29;20051;-72
2021/03/05 06:49:06;;;;;;;21.47;9.30;;;6.50;78.10;;;;;;4959282;28;20038;-72
2021/03/05 06:51:32;;;;;;;21.23;10.60;;;6.40;78.30;;;;;;4972017;28;20034;-73
2021/03/05 06:54:09;;;;;;;24.87;9.93;;;6.40;78.70;;;;;;4953946;28;20040;-72
2021/03/05 06:56:37;;;;;;;20.23;9.50;;;6.40;78.30;;;;;;4957762;28;20138;-74
2021/03/05 06:59:13;;;;;;;19.43;9.17;;;6.40;77.80;;;;;;4968702;28;20468;-72
2021/03/05 07:02:00;;;;;;;17.67;9.00;;;6.50;77.60;;;;;;4955042;28;20051;-73
2021/03/05 07:04:27;;;;;;;18.07;8.83;;;6.40;77.60;;;;;;4955601;28;20027;-73
2021/03/05 07:07:07;;;;;;;17.97;8.67;;;6.40;78.00;;;;;;4955236;28;20080;-72
2021/03/05 07:09:37;;;;;;;20.17;9.17;;;6.40;77.80;;;;;;4955279;28;20031;-72
2021/03/05 07:12:24;;;;;;;17.37;8.50;;;6.40;78.60;;;;;;4955418;28;20062;-73
2021/03/05 07:14:59;;;;;;;23.13;9.07;;;6.40;78.70;;;;;;4955017;28;20134;-71
2021/03/05 07:17:25;;;;;;;19.73;8.87;;;6.50;78.90;;;;;;4957272;28;20114;-72
2021/03/05 07:19:51;;;;;;;18.57;9.23;;;6.40;79.40;;;;;;4966721;28;20125;-72
2021/03/05 07:22:18;;;;;;;20.53;8.97;;;6.40;78.90;;;;;;4957991;28;20107;-72
2021/03/05 07:24:49;;;;;;;21.27;9.17;;;6.30;78.70;;;;;;4956056;28;20060;-72
2021/03/05 07:27:15;;;;;;;17.48;8.45;;;6.30;79.10;;;;;;4956079;29;20122;-72
2021/03/05 07:29:44;;;;;;;20.47;9.47;;;6.40;78.60;;;;;;4955294;29;20444;-74
2021/03/05 07:32:17;;;;;;;17.53;8.43;;;6.30;78.70;;;;;;4955948;29;20491;-72
2021/03/05 07:34:59;;;;;;;19.17;9.17;;;6.30;79.30;;;;;;4943724;28;20407;-72
2021/03/05 07:37:33;;;;;;;20.48;9.57;;;6.30;79.70;;;;;;4975107;28;20035;-72
2021/03/05 07:40:15;;;;;;;21.20;9.33;;;6.30;79.00;;;;;;4960469;28;20035;-72
2021/03/05 07:42:41;;;;;;;19.67;8.50;;;6.30;79.10;;;;;;4951110;29;20058;-73
2021/03/05 07:45:08;;;;;;;20.70;9.10;;;6.20;79.20;;;;;;4962441;28;20039;-72
2021/03/05 07:47:37;;;;;;;18.87;8.97;;;6.20;79.70;;;;;;4964043;28;20122;-73
2021/03/05 07:50:06;;;;;;;21.03;9.57;;;6.30;79.70;;;;;;4955251;29;20050;-72
2021/03/05 07:52:32;;;;;;;21.93;10.37;;;6.30;79.40;;;;;;4962649;28;20036;-72
2021/03/05 07:54:58;;;;;;;22.73;9.27;;;6.40;78.60;;;;;;4974869;28;20118;-72
2021/03/05 07:57:24;;;;;;;18.80;9.63;;;6.40;78.20;;;;;;4970176;28;20074;-72
2021/03/05 07:59:51;;;;;;;20.03;9.13;;;6.30;78.50;;;;;;4973676;28;20078;-73
2021/03/05 08:02:19;;;;;;;17.60;8.60;;;6.30;77.30;;;;;;4957656;28;20035;-73
2021/03/05 08:04:50;;;;;;;17.63;8.87;;;6.30;77.10;;;;;;4962525;28;20089;-73
2021/03/05 08:07:21;;;;;;;18.10;9.00;;;6.30;77.20;;;;;;4955118;28;20032;-73
2021/03/05 08:09:47;;;;;;;20.40;8.67;;;6.40;77.40;;;;;;4954050;29;20035;-73
2021/03/05 08:15:05;;;;;;;20.73;9.07;;;6.40;76.20;;;;;;4957207;28;20045;-73
2021/03/05 08:17:32;;;;;;;16.80;8.33;;;6.40;76.80;;;;;;4954469;29;20054;-73
2021/03/05 08:19:58;;;;;;;15.87;7.17;;;6.50;75.60;;;;;;4967945;28;20034;-72
2021/03/05 08:22:24;;;;;;;17.33;8.97;;;6.40;75.60;;;;;;4973954;28;20039;-73
2021/03/05 08:24:50;;;;;;;16.73;8.37;;;6.40;76.00;;;;;;4953520;28;20066;-73
2021/03/05 08:27:36;;;;;;;15.23;7.33;;;6.40;76.10;;;;;;4961914;28;20126;-75
2021/03/05 08:30:11;;;;;;;15.97;7.27;;;6.50;75.20;;;;;;4958454;28;20039;-74
2021/03/05 08:32:37;;;;;;;16.47;7.40;;;6.50;75.00;;;;;;4961147;28;20035;-77
2021/03/05 08:35:31;;;;;;;16.60;7.43;;;6.50;74.60;;;;;;4967213;28;20066;-73
2021/03/05 08:38:14;;;;;;;18.83;7.57;;;6.60;74.10;;;;;;4954113;29;20271;-73
2021/03/05 08:40:48;;;;;;;15.17;6.90;;;6.60;73.90;;;;;;4954085;28;20043;-74
2021/03/05 08:43:19;;;;;;;14.47;7.27;;;6.60;73.60;;;;;;4954610;28;20051;-74
2021/03/05 08:45:51;;;;;;;15.60;7.22;;;6.60;73.20;;;;;;4953910;29;20041;-74
2021/03/05 08:48:28;;;;;;;13.75;6.15;;;6.60;72.50;;;;;;4956094;28;20082;-74
2021/03/05 08:51:20;;;;;;;16.60;7.37;;;6.70;73.30;;;;;;4967963;28;20043;-74
2021/03/05 08:53:56;;;;;;;14.48;6.32;;;6.70;72.00;;;;;;4963556;28;20047;-73
2021/03/05 08:56:23;;;;;;;9.30;5.23;;;6.70;71.00;;;;;;4945247;28;20480;-74
2021/03/05 08:59:00;;;;;;;11.53;5.23;;;6.70;71.00;;;;;;4954145;28;20049;-74
2021/03/05 09:01:31;;;;;;;15.47;5.73;;;6.70;71.00;;;;;;4959136;28;20074;-74
2021/03/05 09:04:15;;;;;;;13.57;5.80;;;6.70;70.50;;;;;;4972918;28;20039;-73
2021/03/05 09:06:55;;;;;;;11.13;4.53;;;6.70;70.30;;;;;;4941140;28;20436;-74
2021/03/05 09:09:26;;;;;;;11.27;5.30;;;6.70;69.60;;;;;;4969114;28;20138;-74
2021/03/05 09:12:09;;;;;;;13.00;5.77;;;6.70;70.90;;;;;;4953055;28;20070;-74
2021/03/05 09:14:35;;;;;;;8.80;4.87;;;6.70;71.00;;;;;;4944395;29;20044;-74
2021/03/05 09:17:03;;;;;;;8.97;5.20;;;6.70;69.80;;;;;;4950841;28;20401;-74
2021/03/05 09:19:43;;;;;;;8.90;4.60;;;6.70;69.80;;;;;;4955781;28;20067;-74
2021/03/05 09:22:17;;;;;;;11.13;5.07;;;6.80;69.60;;;;;;4968855;28;20093;-73
2021/03/05 09:24:47;;;;;;;9.77;4.87;;;6.70;70.10;;;;;;4941653;28;20093;-74
2021/03/05 09:27:17;;;;;;;11.60;4.50;;;6.70;69.00;;;;;;4974459;28;20044;-74
2021/03/05 09:29:43;;;;;;;12.70;5.83;;;6.70;69.10;;;;;;4973642;28;20027;-74
2021/03/05 09:32:09;;;;;;;11.20;4.90;;;6.80;69.70;;;;;;4956772;28;20054;-76
2021/03/05 09:34:46;;;;;;;9.37;4.73;;;6.80;70.50;;;;;;4952327;28;20133;-75
2021/03/05 09:37:23;;;;;;;11.33;5.03;;;6.70;70.40;;;;;;4966249;28;20031;-73
2021/03/05 09:39:50;;;;;;;8.93;4.80;;;6.70;69.10;;;;;;4965927;28;20046;-76
2021/03/05 09:42:16;;;;;;;9.97;4.53;;;6.70;69.60;;;;;;4962659;28;20031;-72
2021/03/05 09:44:46;;;;;;;10.77;4.80;;;6.70;70.10;;;;;;4959037;28;20091;-73
2021/03/05 09:47:12;;;;;;;10.90;4.90;;;6.70;69.90;;;;;;4961011;28;20035;-73
2021/03/05 09:49:39;;;;;;;12.60;5.17;;;6.70;69.20;;;;;;4960644;28;20126;-74
2021/03/05 09:52:05;;;;;;;10.17;5.30;;;6.70;69.00;;;;;;4954724;29;20110;-75
2021/03/05 09:54:39;;;;;;;11.83;5.13;;;6.80;68.70;;;;;;4971360;28;20039;-74
2021/03/05 09:57:05;;;;;;;13.30;5.37;;;6.80;68.70;;;;;;4966079;28;20109;-75
2021/03/05 09:59:49;;;;;;;11.33;5.23;;;6.80;68.60;;;;;;4951581;28;20044;-74
2021/03/05 10:02:22;;;;;;;11.43;5.20;;;6.80;68.60;;;;;;4943821;29;20027;-74
2021/03/05 10:04:50;;;;;;;11.17;5.37;;;6.80;68.30;;;;;;4952728;29;20075;-74
2021/03/05 10:07:17;;;;;;;15.17;5.77;;;6.90;68.30;;;;;;4953767;28;20508;-75
2021/03/05 10:09:43;;;;;;;12.97;5.53;;;7.00;68.40;;;;;;4952770;28;20035;-75
2021/03/05 10:12:08;;;;;;;9.73;5.03;;;7.00;68.00;;;;;;4953565;28;20043;-74
2021/03/05 10:14:39;;;;;;;10.37;5.27;;;7.10;67.50;;;;;;4971809;28;20047;-74
2021/03/05 10:17:13;;;;;;;11.60;5.43;;;7.10;67.10;;;;;;4956211;28;20061;-73
2021/03/05 10:19:40;;;;;;;12.40;5.40;;;7.10;67.00;;;;;;4965659;28;20491;-77
2021/03/05 10:22:10;;;;;;;12.57;5.33;;;7.20;67.20;;;;;;4966037;28;20039;-73
2021/03/05 10:24:37;;;;;;;12.43;5.47;;;7.10;67.30;;;;;;4973163;28;20035;-73
2021/03/05 10:27:16;;;;;;;10.00;5.50;;;7.20;68.00;;;;;;4971748;28;20042;-72
2021/03/05 10:29:52;;;;;;;12.80;6.53;;;7.20;67.50;;;;;;4971937;28;20066;-73
2021/03/05 10:32:42;;;;;;;13.20;5.67;;;7.10;67.20;;;;;;4966837;28;20141;-73
2021/03/05 10:35:09;;;;;;;12.60;5.47;;;7.10;67.20;;;;;;4976448;28;20043;-72
2021/03/05 10:37:36;;;;;;;14.90;5.60;;;7.10;67.50;;;;;;4965304;28;20036;-72
2021/03/05 10:40:04;;;;;;;11.93;5.17;;;7.10;66.60;;;;;;4972016;28;20434;-72
2021/03/05 10:42:30;;;;;;;12.33;5.83;;;7.20;66.80;;;;;;4968626;28;20044;-72
2021/03/05 10:44:56;;;;;;;15.70;6.47;;;7.20;66.40;;;;;;4955780;28;20089;-72
2021/03/05 10:47:22;;;;;;;16.03;6.60;;;7.20;66.70;;;;;;4966626;28;20395;-72
2021/03/05 10:49:48;;;;;;;13.63;6.00;;;7.30;66.40;;;;;;4968364;28;20039;-72
2021/03/05 10:52:19;;;;;;;15.40;5.93;;;7.30;66.80;;;;;;4959768;28;20508;-71
2021/03/05 10:54:46;;;;;;;14.03;6.70;;;7.30;66.60;;;;;;4945509;28;20479;-71
2021/03/05 10:57:13;;;;;;;14.90;6.40;;;7.40;66.30;;;;;;4976522;28;20046;-71
2021/03/05 10:59:39;;;;;;;16.87;6.70;;;7.40;66.00;;;;;;4963356;28;20050;-72
2021/03/05 11:02:05;;;;;;;14.50;6.03;;;7.40;67.00;;;;;;4964973;28;20049;-72
2021/03/05 11:04:31;;;;;;;14.87;6.57;;;7.40;66.30;;;;;;4974192;28;20480;-71
2021/03/05 11:06:56;;;;;;;15.53;6.93;;;7.50;67.00;;;;;;4970412;28;20031;-70
2021/03/05 11:09:27;;;;;;;14.97;6.63;;;7.50;66.60;;;;;;4966099;28;20041;-71
2021/03/05 11:11:54;;;;;;;15.03;6.87;;;7.60;66.40;;;;;;4968608;28;20050;-70
2021/03/05 11:14:20;;;;;;;15.57;6.73;;;7.60;66.10;;;;;;4959194;28;20109;-71
2021/03/05 11:16:46;;;;;;;15.57;7.13;;;7.60;65.80;;;;;;4970486;28;20043;-72
2021/03/05 11:19:12;;;;;;;17.77;7.53;;;7.70;66.20;;;;;;4963550;28;20046;-72
2021/03/05 11:21:38;;;;;;;15.53;7.70;;;7.70;66.60;;;;;;4963639;28;20093;-72
2021/03/05 11:24:05;;;;;;;16.65;7.13;;;7.80;66.50;;;;;;4970392;28;20093;-71
2021/03/05 11:26:31;;;;;;;15.70;7.00;;;7.80;65.30;;;;;;4959107;28;20432;-71
2021/03/05 11:28:57;;;;;;;13.23;6.70;;;7.70;65.40;;;;;;4975703;28;20035;-71
2021/03/05 11:31:23;;;;;;;16.93;7.20;;;7.60;65.30;;;;;;4974477;28;20037;-71
2021/03/05 11:33:49;;;;;;;15.60;7.47;;;7.60;65.60;;;;;;4968651;28;20042;-72
2021/03/05 11:36:16;;;;;;;12.27;6.90;;;7.70;66.20;;;;;;4976089;28;20030;-71
2021/03/05 11:38:43;;;;;;;15.37;7.73;;;7.80;66.40;;;;;;4975711;28;20039;-71
2021/03/05 11:41:10;;;;;;;16.07;6.90;;;7.80;65.80;;;;;;4967567;28;20043;-71
2021/03/05 11:43:40;;;;;;;14.80;6.90;;;7.80;65.40;;;;;;4967222;28;20131;-71
2021/03/05 11:46:05;;;;;;;16.27;6.73;;;7.70;65.20;;;;;;4960086;28;20086;-70
2021/03/05 11:48:31;;;;;;;14.67;7.57;;;7.70;66.00;;;;;;4974447;28;20035;-72
2021/03/05 11:50:57;;;;;;;13.87;6.77;;;7.70;65.80;;;;;;4968428;28;20094;-71
2021/03/05 11:53:22;;;;;;;14.85;7.38;;;7.70;66.20;;;;;;4964081;28;20395;-72
2021/03/05 11:55:48;;;;;;;15.25;7.45;;;7.70;65.80;;;;;;4961633;28;20512;-72
2021/03/05 11:58:14;;;;;;;19.43;7.53;;;7.80;65.90;;;;;;4972160;28;20042;-72
2021/03/05 12:00:39;;;;;;;17.67;7.43;;;7.80;65.80;;;;;;4957560;28;20086;-75
2021/03/05 12:03:05;;;;;;;15.67;7.50;;;7.80;66.10;;;;;;4959998;28;20416;-71
2021/03/05 12:05:31;;;;;;;11.27;6.40;;;7.80;66.40;;;;;;4964835;28;20085;-71
2021/03/05 12:07:56;;;;;;;16.40;7.30;;;7.80;65.70;;;;;;4975072;28;20042;-71
2021/03/05 12:10:22;;;;;;;13.90;6.93;;;7.90;66.20;;;;;;4958163;28;20039;-71
2021/03/05 12:12:48;;;;;;;13.65;6.47;;;7.90;65.70;;;;;;4974785;28;20118;-71
2021/03/05 12:15:14;;;;;;;16.63;7.30;;;7.90;65.50;;;;;;4975374;28;20113;-71
2021/03/05 12:17:40;;;;;;;15.77;6.83;;;7.90;65.60;;;;;;4961995;28;20039;-73
2021/03/05 12:20:06;;;;;;;11.60;6.43;;;7.90;65.00;;;;;;4970826;28;20388;-71
2021/03/05 12:22:32;;;;;;;12.57;6.23;;;8.00;64.50;;;;;;4975267;28;20031;-71
2021/03/05 12:24:58;;;;;;;12.15;5.82;;;8.00;63.90;;;;;;4967740;28;20186;-71
2021/03/05 12:27:24;;;;;;;12.20;5.67;;;8.10;63.00;;;;;;4963765;28;20035;-71
2021/03/05 12:29:50;;;;;;;12.47;5.97;;;8.10;62.60;;;;;;4960606;28;20062;-71
2021/03/05 12:32:15;;;;;;;10.20;5.97;;;8.00;62.70;;;;;;4962213;28;20124;-72
2021/03/05 12:34:41;;;;;;;13.10;5.65;;;8.10;63.60;;;;;;4969686;28;20111;-72
2021/03/05 12:37:08;;;;;;;14.25;5.93;;;8.10;63.80;;;;;;4962675;28;20113;-72
2021/03/05 12:39:33;;;;;;;12.13;5.73;;;8.10;63.90;;;;;;4975035;28;20035;-72
2021/03/05 12:41:59;;;;;;;12.25;6.25;;;8.10;64.10;;;;;;4959265;28;20352;-72
2021/03/05 12:44:25;;;;;;;14.83;6.83;;;8.20;64.10;;;;;;4972913;28;20114;-72
2021/03/05 12:46:50;;;;;;;15.65;6.15;;;8.30;64.30;;;;;;4968272;28;20091;-72
2021/03/05 12:49:16;;;;;;;11.50;5.70;;;8.40;62.90;;;;;;4954337;28;20039;-72
2021/03/05 12:51:42;;;;;;;11.35;5.95;;;8.40;62.00;;;;;;4965161;28;20038;-73
2021/03/05 12:54:07;;;;;;;12.80;5.80;;;8.50;64.40;;;;;;4974087;28;20450;-72
2021/03/05 12:56:33;;;;;;;11.07;6.13;;;8.60;63.90;;;;;;4957445;28;20047;-71
2021/03/05 12:58:59;;;;;;;13.45;5.40;;;8.60;62.80;;;;;;4974004;28;20364;-70